S C — FGF7634 — position and weather

sailwx.info

Track history (hours):
 
Tides and Currents Weather Stations Pressure Air Temp Water Temp Dewpoint Dewpoint Depression Visibility Wind Speed Wind Dir Waves Ship Positions

S C

Last reported at 2018-Jun-20 07:31 UTC. Time now 2018-Jun-20 07:48 UTC.
Position N 49°29' E 000°07'.

; draft 1 m.

Type: Pilot. MMSI: 227001820.

Date/timePositionNaut miles runAvg speedWind from/ knotsBaromVisibWave heightAir tempDewpointWater temp
2018-Jun-20 07:31N 49°29' E 000°07'0 0.0
2018-Jun-20 07:00N 49°29' E 000°07'0 0.0
2018-Jun-20 06:30N 49°29' E 000°07'1 2.8
2018-Jun-20 06:00N 49°29' E 000°05'4 7.1
2018-Jun-20 05:31N 49°31' E 000°00'5 9.7
2018-Jun-20 05:00N 49°29' E 000°07'3 6.5
2018-Jun-20 04:31N 49°30' E 000°02'0 0.6
2018-Jun-20 04:00N 49°30' E 000°01'4 7.1
2018-Jun-20 03:30N 49°29' E 000°07'0 0.0
2018-Jun-20 03:00N 49°29' E 000°07'0 0.0
2018-Jun-20 02:30N 49°29' E 000°07'0 0.0
2018-Jun-20 02:00N 49°29' E 000°07'0 0.0
2018-Jun-20 01:30N 49°29' E 000°07'0 0.0
2018-Jun-20 01:00N 49°29' E 000°07'0 0.0
2018-Jun-20 00:30N 49°29' E 000°07'0 0.0
2018-Jun-20 00:00N 49°29' E 000°07'4 8.7
2018-Jun-19 23:31N 49°30' E 000°00'4 7.8
2018-Jun-19 23:00N 49°29' E 000°06'0 0.9
2018-Jun-19 22:30N 49°29' E 000°07'0 0.0
2018-Jun-19 22:01N 49°29' E 000°07'0 0.0
2018-Jun-19 21:31N 49°29' E 000°07'0 0.0
2018-Jun-19 21:01N 49°29' E 000°07'0 0.0
2018-Jun-19 20:30N 49°29' E 000°07'0 0.0
2018-Jun-19 20:00N 49°29' E 000°07'0 0.0
2018-Jun-19 19:31N 49°29' E 000°07'3 5.2
2018-Jun-19 19:00N 49°30' E 000°03'0 0.3
2018-Jun-19 18:30N 49°30' E 000°03'3 5.4
2018-Jun-19 18:00N 49°29' E 000°07'0 0.0
2018-Jun-19 17:30N 49°29' E 000°07'0 0.0
2018-Jun-19 17:00N 49°29' E 000°07'0 0.0
2018-Jun-19 16:30N 49°29' E 000°07'0 0.0
2018-Jun-19 16:00N 49°29' E 000°07'816.8
2018-Jun-19 15:30N 49°31' W 000°06'816.4
2018-Jun-19 15:00N 49°29' E 000°06'0 0.3
2018-Jun-19 14:30N 49°29' E 000°06'918.4
2018-Jun-19 14:00N 49°32' W 000°07'1019.3
2018-Jun-19 13:30N 49°29' E 000°07'0 0.0
2018-Jun-19 13:00N 49°29' E 000°07'0 0.0
2018-Jun-19 12:30N 49°29' E 000°07'0 0.0
2018-Jun-19 12:00N 49°29' E 000°07'0 0.0
2018-Jun-19 11:30N 49°29' E 000°07'0 0.0
2018-Jun-19 11:00N 49°29' E 000°07'0 0.0
2018-Jun-19 10:30N 49°29' E 000°07'0 0.8
2018-Jun-19 10:00N 49°29' E 000°06'917.2
2018-Jun-19 09:30N 49°31' W 000°06'917.8
2018-Jun-19 09:00N 49°29' E 000°07'0 0.1
2018-Jun-19 08:30N 49°29' E 000°07'0 0.0
2018-Jun-19 08:00N 49°29' E 000°07'0 0.0
2018-Jun-19 07:30N 49°29' E 000°07'0 0.0
2018-Jun-19 07:00N 49°29' E 000°07'0 0.0
2018-Jun-19 06:30N 49°29' E 000°07'1 2.0
2018-Jun-19 06:00N 49°29' E 000°05'1 2.0
2018-Jun-19 05:30N 49°29' E 000°07'0 0.0
2018-Jun-19 05:00N 49°29' E 000°07'0 0.0
2018-Jun-19 04:31N 49°29' E 000°07'917.7
2018-Jun-19 04:01N 49°32' W 000°06'917.4
2018-Jun-19 03:31N 49°29' E 000°07'4 8.3
2018-Jun-19 03:00N 49°30' E 000°00'3 6.1
2018-Jun-19 02:30N 49°31' W 000°04'2 3.4
2018-Jun-19 02:01N 49°31' W 000°06'917.8
2018-Jun-19 01:30N 49°29' E 000°07'0 0.0
2018-Jun-19 01:00N 49°29' E 000°07'0 0.0
2018-Jun-19 00:30N 49°29' E 000°07'0 0.0
2018-Jun-19 00:00N 49°29' E 000°07'0 0.0
2018-Jun-18 23:30N 49°29' E 000°07'0 0.0
2018-Jun-18 23:00N 49°29' E 000°07'0 0.0
2018-Jun-18 22:30N 49°29' E 000°07'0 0.0
2018-Jun-18 22:00N 49°29' E 000°07'0 0.0
2018-Jun-18 21:30N 49°29' E 000°07'0 0.0
2018-Jun-18 21:00N 49°29' E 000°07'612.6
2018-Jun-18 20:30N 49°33' W 000°01'612.9
2018-Jun-18 20:00N 49°29' E 000°07'0 0.2
2018-Jun-18 19:30N 49°29' E 000°07'0 0.0
2018-Jun-18 19:00N 49°29' E 000°07'0 0.0
2018-Jun-18 18:30N 49°29' E 000°07'0 0.0
2018-Jun-18 18:00N 49°29' E 000°07'815.8
2018-Jun-18 17:31N 49°31' W 000°05'815.3
2018-Jun-18 17:00N 49°29' E 000°06'0 0.4
2018-Jun-18 16:30N 49°29' E 000°07'0 0.0
2018-Jun-18 16:00N 49°29' E 000°07'3 6.3
2018-Jun-18 15:31N 49°30' E 000°02'3 6.3
2018-Jun-18 15:01N 49°29' E 000°07'714.9
2018-Jun-18 14:30N 49°31' W 000°04'714.9
2018-Jun-18 14:00N 49°29' E 000°07'0 0.0
2018-Jun-18 13:30N 49°29' E 000°07'0 0.0
2018-Jun-18 13:00N 49°29' E 000°07'0 0.0
2018-Jun-18 12:30N 49°29' E 000°07'0 0.0
2018-Jun-18 12:00N 49°29' E 000°07'0 0.0
2018-Jun-18 11:30N 49°29' E 000°07'0 0.0
2018-Jun-18 11:00N 49°29' E 000°07'5 9.5
2018-Jun-18 10:30N 49°31' E 000°00'4 7.6
2018-Jun-18 10:01N 49°31' W 000°05'816.2
2018-Jun-18 09:30N 49°29' E 000°07'0 0.0
2018-Jun-18 09:01N 49°29' E 000°07'0 0.0
2018-Jun-18 08:30N 49°29' E 000°07'0 0.0
2018-Jun-18 08:00N 49°29' E 000°07'0 0.0
2018-Jun-18 07:30N 49°29' E 000°07'3 5.6
2018-Jun-18 07:01N 49°30' E 000°03'3 5.4
2018-Jun-18 06:30N 49°29' E 000°07'0 0.0
2018-Jun-18 06:00N 49°29' E 000°07'0 0.0
2018-Jun-18 05:30N 49°29' E 000°07'0 0.0
2018-Jun-18 05:00N 49°29' E 000°07'0 0.0
2018-Jun-18 04:30N 49°29' E 000°07'0 0.0
2018-Jun-18 04:00N 49°29' E 000°07'510.1
2018-Jun-18 03:31N 49°31' W 000°01'3 5.9
2018-Jun-18 03:01N 49°31' W 000°05'815.8
2018-Jun-18 02:30N 49°29' E 000°07'0 0.0
2018-Jun-18 02:00N 49°29' E 000°07'3 5.5
2018-Jun-18 01:31N 49°30' E 000°03'3 5.4
2018-Jun-18 01:00N 49°29' E 000°07'0 0.0
2018-Jun-18 00:30N 49°29' E 000°07'0 0.0
2018-Jun-18 00:00N 49°29' E 000°07'0 0.0
2018-Jun-17 23:30N 49°29' E 000°07'0 0.0
2018-Jun-17 23:00N 49°29' E 000°07'0 0.0
2018-Jun-17 22:30N 49°29' E 000°07'0 0.0
2018-Jun-17 22:00N 49°29' E 000°07'3 6.2
2018-Jun-17 21:31N 49°30' E 000°02'3 6.2
2018-Jun-17 21:01N 49°29' E 000°07'0 0.0
2018-Jun-17 20:31N 49°29' E 000°07'0 0.0
2018-Jun-17 20:01N 49°29' E 000°07'2 3.7
2018-Jun-17 19:30N 49°29' E 000°04'2 3.7
2018-Jun-17 19:00N 49°29' E 000°07'0 0.0
2018-Jun-17 18:30N 49°29' E 000°07'1 1.3
2018-Jun-17 18:01N 49°29' E 000°06'815.5
2018-Jun-17 17:31N 49°31' W 000°06'816.7
2018-Jun-17 17:00N 49°29' E 000°07'0 0.0
2018-Jun-17 16:31N 49°29' E 000°07'0 0.0
2018-Jun-17 16:01N 49°29' E 000°07'0 0.0
2018-Jun-17 15:30N 49°29' E 000°07'0 0.0
2018-Jun-17 15:00N 49°29' E 000°07'0 0.0
2018-Jun-17 14:30N 49°29' E 000°07'0 0.0
2018-Jun-17 14:01N 49°29' E 000°07'510.1
2018-Jun-17 13:30N 49°31' W 000°00'1 1.5
2018-Jun-17 13:01N 49°30' W 000°01'510.4
2018-Jun-17 12:30N 49°29' E 000°07'0 0.0
2018-Jun-17 12:00N 49°29' E 000°07'0 0.0
2018-Jun-17 11:30N 49°29' E 000°07'0 0.0
2018-Jun-17 11:00N 49°29' E 000°07'0 0.0
2018-Jun-17 10:31N 49°29' E 000°07'714.3
2018-Jun-17 10:01N 49°31' W 000°04'714.3
2018-Jun-17 09:30N 49°29' E 000°07'0 0.0
2018-Jun-17 09:00N 49°29' E 000°07'0 0.0
2018-Jun-17 08:30N 49°29' E 000°07'0 0.0
2018-Jun-17 08:00N 49°29' E 000°07'0 0.0
2018-Jun-17 07:30N 49°29' E 000°07'0 0.0
2018-Jun-17 07:01N 49°29' E 000°07'0 0.0
2018-Jun-17 06:31N 49°29' E 000°07'0 0.0
2018-Jun-17 06:01N 49°29' E 000°07'0 0.0
2018-Jun-17 05:30N 49°29' E 000°07'0 0.0
2018-Jun-17 05:00N 49°29' E 000°07'0 0.0
2018-Jun-17 04:30N 49°29' E 000°07'0 0.0
2018-Jun-17 04:01N 49°29' E 000°07'0 0.0
2018-Jun-17 03:30N 49°29' E 000°07'2 3.6
2018-Jun-17 03:00N 49°29' E 000°04'2 3.6
2018-Jun-17 02:31N 49°29' E 000°07'0 0.0
2018-Jun-17 02:01N 49°29' E 000°07'0 0.0
2018-Jun-17 01:30N 49°29' E 000°07'0 0.0
2018-Jun-17 01:00N 49°29' E 000°07'0 0.0
2018-Jun-17 00:31N 49°29' E 000°07'0 0.0
2018-Jun-17 00:00N 49°29' E 000°07'0 0.0
2018-Jun-16 23:31N 49°29' E 000°07'0 0.0
2018-Jun-16 23:00N 49°29' E 000°07'0 0.0
2018-Jun-16 22:30N 49°29' E 000°07'0 1.0
2018-Jun-16 22:00N 49°29' E 000°06'815.2
2018-Jun-16 21:30N 49°31' W 000°05'815.7
2018-Jun-16 21:00N 49°29' E 000°06'0 0.4
2018-Jun-16 20:30N 49°29' E 000°07'0 0.0
2018-Jun-16 20:00N 49°29' E 000°07'0 0.0
2018-Jun-16 19:30N 49°29' E 000°07'714.1
2018-Jun-16 19:00N 49°31' W 000°04'714.1
2018-Jun-16 18:30N 49°29' E 000°07'0 0.0
2018-Jun-16 18:00N 49°29' E 000°07'0 0.0
2018-Jun-16 17:30N 49°29' E 000°07'0 0.0
2018-Jun-16 17:00N 49°29' E 000°07'0 0.0
2018-Jun-16 16:30N 49°29' E 000°07'0 0.0
2018-Jun-16 16:00N 49°29' E 000°07'0 0.0
2018-Jun-16 15:30N 49°29' E 000°07'0 0.0
2018-Jun-16 15:00N 49°29' E 000°07'0 0.0
2018-Jun-16 14:30N 49°29' E 000°07'0 0.0
2018-Jun-16 14:00N 49°29' E 000°07'0 0.0
2018-Jun-16 13:30N 49°29' E 000°07'0 0.0
2018-Jun-16 13:00N 49°29' E 000°07'0 0.0
2018-Jun-16 12:30N 49°29' E 000°07'0 0.0
2018-Jun-16 12:00N 49°29' E 000°07'0 0.0
2018-Jun-16 11:30N 49°29' E 000°07'917.7
2018-Jun-16 11:00N 49°32' W 000°06'917.6
2018-Jun-16 10:30N 49°29' E 000°07'0 0.0
2018-Jun-16 10:00N 49°29' E 000°07'0 0.0
2018-Jun-16 09:30N 49°29' E 000°07'0 0.0
2018-Jun-16 09:00N 49°29' E 000°07'0 0.0
2018-Jun-16 08:30N 49°29' E 000°07'0 0.1
2018-Jun-16 08:00N 49°29' E 000°07'0 0.1
2018-Jun-16 07:30N 49°29' E 000°07'0 0.0
2018-Jun-16 07:00N 49°29' E 000°07'0 0.0
2018-Jun-16 06:29N 49°29' E 000°07'0 0.0
2018-Jun-16 06:00N 49°29' E 000°07'0 0.0
2018-Jun-16 05:30N 49°29' E 000°07'0 0.0
2018-Jun-16 05:00N 49°29' E 000°07'0 0.0
2018-Jun-16 04:30N 49°29' E 000°07'0 0.0
2018-Jun-16 04:00N 49°29' E 000°07'5 9.3
2018-Jun-16 03:30N 49°30' W 000°00'4 8.7
2018-Jun-16 03:00N 49°31' W 000°07'918.0
2018-Jun-16 02:30N 49°29' E 000°07'611.3
2018-Jun-16 02:00N 49°31' W 000°02'3 5.3
2018-Jun-16 01:30N 49°31' W 000°05'816.6
2018-Jun-16 01:00N 49°29' E 000°07'0 0.0
2018-Jun-16 00:30N 49°29' E 000°07'0 0.0
2018-Jun-16 00:00N 49°29' E 000°07'0 0.0
2018-Jun-15 23:30N 49°29' E 000°07'0 0.0
2018-Jun-15 23:00N 49°29' E 000°07'0 0.0
2018-Jun-15 22:30N 49°29' E 000°07'713.9
2018-Jun-15 22:00N 49°31' W 000°04'713.9
2018-Jun-15 21:30N 49°29' E 000°07'0 0.0
2018-Jun-15 21:00N 49°29' E 000°07'0 0.0
2018-Jun-15 20:30N 49°29' E 000°07'0 0.0
2018-Jun-15 20:00N 49°29' E 000°07'0 0.0
2018-Jun-15 19:30N 49°29' E 000°07'1 2.5
2018-Jun-15 19:00N 49°29' E 000°05'510.2
2018-Jun-15 18:30N 49°31' W 000°03'2 3.7
2018-Jun-15 18:00N 49°30' W 000°05'816.1
2018-Jun-15 17:30N 49°29' E 000°07'0 0.0
2018-Jun-15 17:00N 49°29' E 000°07'0 0.0
2018-Jun-15 16:30N 49°29' E 000°07'0 0.0
2018-Jun-15 16:00N 49°29' E 000°07'0 1.0
2018-Jun-15 15:30N 49°29' E 000°06'0 1.0
2018-Jun-15 15:00N 49°29' E 000°07'0 0.0
2018-Jun-15 14:31N 49°29' E 000°07'0 0.0
2018-Jun-15 14:00N 49°29' E 000°07'0 0.0
2018-Jun-15 13:31N 49°29' E 000°07'3 5.6
2018-Jun-15 13:01N 49°30' E 000°03'3 5.6
2018-Jun-15 12:30N 49°29' E 000°07'0 0.0
2018-Jun-15 12:00N 49°29' E 000°07'0 0.0
2018-Jun-15 11:30N 49°29' E 000°07'0 0.0
2018-Jun-15 11:00N 49°29' E 000°07'0 0.0
2018-Jun-15 10:30N 49°29' E 000°07'0 0.0
2018-Jun-15 10:00N 49°29' E 000°07'0 0.0
2018-Jun-15 09:30N 49°29' E 000°07'0 0.0
2018-Jun-15 09:00N 49°29' E 000°07'0 0.0
2018-Jun-15 08:30N 49°29' E 000°07'0 0.0
2018-Jun-15 08:00N 49°29' E 000°07'0 0.0
2018-Jun-15 07:30N 49°29' E 000°07'0 0.2
2018-Jun-15 07:00N 49°29' E 000°07'0 0.1
2018-Jun-15 06:30N 49°29' E 000°07'0 0.0
2018-Jun-15 06:00N 49°29' E 000°07'0 0.0
2018-Jun-15 05:30N 49°29' E 000°07'0 0.0
2018-Jun-15 05:00N 49°29' E 000°07'0 0.0
2018-Jun-15 04:30N 49°29' E 000°07'0 0.0
2018-Jun-15 04:00N 49°29' E 000°07'611.1
2018-Jun-15 03:30N 49°31' W 000°01'1 2.6
2018-Jun-15 03:00N 49°30' W 000°00'5 9.5
2018-Jun-15 02:31N 49°29' E 000°07'714.2
2018-Jun-15 02:01N 49°31' W 000°04'713.6
2018-Jun-15 01:30N 49°29' E 000°06'0 0.6
2018-Jun-15 01:00N 49°29' E 000°07'0 0.0
2018-Jun-15 00:30N 49°29' E 000°07'0 0.0
2018-Jun-15 00:00N 49°29' E 000°07'0 0.0
2018-Jun-14 23:30N 49°29' E 000°07'0 0.0
2018-Jun-14 23:00N 49°29' E 000°07'0 0.0
2018-Jun-14 22:30N 49°29' E 000°07'0 0.0
2018-Jun-14 22:00N 49°29' E 000°07'5 9.5
2018-Jun-14 21:31N 49°30' W 000°00'5 9.4
2018-Jun-14 21:00N 49°29' E 000°07'0 0.0
2018-Jun-14 20:30N 49°29' E 000°07'0 0.0
2018-Jun-14 20:00N 49°29' E 000°07'0 0.0
2018-Jun-14 19:30N 49°29' E 000°07'0 0.0
2018-Jun-14 19:00N 49°29' E 000°07'714.5
2018-Jun-14 18:30N 49°31' W 000°04'612.0
2018-Jun-14 18:00N 49°29' E 000°05'1 2.5
2018-Jun-14 17:30N 49°29' E 000°07'0 0.0
2018-Jun-14 17:00N 49°29' E 000°07'0 0.0
2018-Jun-14 16:30N 49°29' E 000°07'0 0.0
2018-Jun-14 16:00N 49°29' E 000°07'0 0.0
2018-Jun-14 15:30N 49°29' E 000°07'0 0.0
2018-Jun-14 15:00N 49°29' E 000°07'0 0.0
2018-Jun-14 14:30N 49°29' E 000°07'0 0.1
2018-Jun-14 14:00N 49°29' E 000°07'0 0.1
2018-Jun-14 13:30N 49°29' E 000°07'0 0.0
2018-Jun-14 13:00N 49°29' E 000°07'1 2.8
2018-Jun-14 12:30N 49°29' E 000°05'5 9.6
2018-Jun-14 12:00N 49°31' W 000°02'510.7
2018-Jun-14 11:31N 49°29' E 000°05'1 1.7
2018-Jun-14 11:00N 49°29' E 000°07'3 6.1
2018-Jun-14 10:30N 49°30' E 000°02'4 8.0
2018-Jun-14 10:01N 49°31' W 000°04'714.0
2018-Jun-14 09:31N 49°29' E 000°07'0 0.0
2018-Jun-14 09:00N 49°29' E 000°07'0 0.0
2018-Jun-14 08:31N 49°29' E 000°07'0 0.0
2018-Jun-14 08:01N 49°29' E 000°07'0 0.0
2018-Jun-14 07:30N 49°29' E 000°07'815.4
2018-Jun-14 07:00N 49°31' W 000°05'815.5
2018-Jun-14 06:30N 49°29' E 000°07'0 0.0
2018-Jun-14 06:00N 49°29' E 000°07'0 0.0
2018-Jun-14 05:30N 49°29' E 000°07'0 0.0
2018-Jun-14 05:00N 49°29' E 000°07'0 0.0
2018-Jun-14 04:30N 49°29' E 000°07'1 2.3
2018-Jun-14 04:01N 49°29' E 000°05'714.4
2018-Jun-14 03:31N 49°31' W 000°06'815.5
2018-Jun-14 03:00N 49°29' E 000°06'1 1.1
2018-Jun-14 02:30N 49°29' E 000°07'0 0.0
2018-Jun-14 02:00N 49°29' E 000°07'1 1.5
2018-Jun-14 01:30N 49°29' E 000°06'0 0.9
2018-Jun-14 01:00N 49°29' E 000°06'0 0.7
2018-Jun-14 00:30N 49°29' E 000°07'0 0.0
2018-Jun-14 00:00N 49°29' E 000°07'3 7.2
2018-Jun-13 23:31N 49°30' E 000°02'3 7.0
2018-Jun-13 23:01N 49°29' E 000°07'0 0.0
2018-Jun-13 22:30N 49°29' E 000°07'0 0.0
2018-Jun-13 22:00N 49°29' E 000°07'0 0.0
2018-Jun-13 21:30N 49°29' E 000°07'1 1.1
2018-Jun-13 21:01N 49°29' E 000°06'1 1.1
2018-Jun-13 20:31N 49°29' E 000°07'1 2.8
2018-Jun-13 20:00N 49°29' E 000°05'4 8.7
2018-Jun-13 19:30N 49°31' W 000°02'5 9.8
2018-Jun-13 19:00N 49°29' E 000°05'1 1.9
2018-Jun-13 18:30N 49°29' E 000°07'0 0.0
2018-Jun-13 18:00N 49°29' E 000°07'0 0.0
2018-Jun-13 17:31N 49°29' E 000°07'0 0.0
2018-Jun-13 17:01N 49°29' E 000°07'0 0.0
2018-Jun-13 16:30N 49°29' E 000°07'0 0.0
2018-Jun-13 16:01N 49°29' E 000°07'0 0.0
2018-Jun-13 15:30N 49°29' E 000°07'0 0.0
2018-Jun-13 15:00N 49°29' E 000°07'0 0.0
2018-Jun-13 14:30N 49°29' E 000°07'0 0.1
2018-Jun-13 14:01N 49°29' E 000°07'0 0.1
2018-Jun-13 13:30N 49°29' E 000°07'0 0.0
2018-Jun-13 13:00N 49°29' E 000°07'0 0.0
2018-Jun-13 12:31N 49°29' E 000°07'0 0.0
2018-Jun-13 12:00N 49°29' E 000°07'0 0.0
2018-Jun-13 11:31N 49°29' E 000°07'0 0.0
2018-Jun-13 11:00N 49°29' E 000°07'0 0.0
2018-Jun-13 10:30N 49°29' E 000°07'0 0.0
2018-Jun-13 10:00N 49°29' E 000°07'0 0.0
2018-Jun-13 09:30N 49°29' E 000°07'0 0.0
2018-Jun-13 09:00N 49°29' E 000°07'0 0.0
2018-Jun-13 08:30N 49°29' E 000°07'0 0.0
2018-Jun-13 08:00N 49°29' E 000°07'0 0.0
2018-Jun-13 07:30N 49°29' E 000°07'0 0.0
2018-Jun-13 07:00N 49°29' E 000°07'0 0.3
2018-Jun-13 06:30N 49°29' E 000°07'0 0.3
2018-Jun-13 06:00N 49°29' E 000°07'0 0.0
2018-Jun-13 05:30N 49°29' E 000°07'0 0.0
2018-Jun-13 05:00N 49°29' E 000°07'2 4.7
2018-Jun-13 04:31N 49°29' E 000°03'2 3.6
2018-Jun-13 04:00N 49°30' E 000°01'4 8.3
2018-Jun-13 03:30N 49°29' E 000°07'0 0.0
2018-Jun-13 03:00N 49°29' E 000°07'918.5
2018-Jun-13 02:31N 49°32' W 000°07'816.7
2018-Jun-13 02:01N 49°29' E 000°05'1 1.8
2018-Jun-13 01:30N 49°29' E 000°07'0 0.0
2018-Jun-13 01:00N 49°29' E 000°07'0 0.0
2018-Jun-13 00:30N 49°29' E 000°07'1 1.4
2018-Jun-13 00:00N 49°29' E 000°06'1 2.6
2018-Jun-12 23:30N 49°29' E 000°04'2 3.9
2018-Jun-12 23:00N 49°29' E 000°07'0 0.0
2018-Jun-12 22:30N 49°29' E 000°07'0 0.0
2018-Jun-12 22:00N 49°29' E 000°07'0 0.0
2018-Jun-12 21:30N 49°29' E 000°07'0 0.0
2018-Jun-12 21:00N 49°29' E 000°07'3 5.1
2018-Jun-12 20:31N 49°30' E 000°03'1 2.4
2018-Jun-12 20:01N 49°28' E 000°02'1 1.6
2018-Jun-12 19:31N 49°28' E 000°02'2 4.3
2018-Jun-12 19:00N 49°30' E 000°03'3 6.0
2018-Jun-12 18:30N 49°30' W 000°01'511.1
2018-Jun-12 18:00N 49°29' E 000°07'0 0.0
2018-Jun-12 17:30N 49°29' E 000°07'816.1
2018-Jun-12 17:01N 49°31' W 000°05'815.8
2018-Jun-12 16:30N 49°29' E 000°07'714.2
2018-Jun-12 16:00N 49°31' W 000°04'5 9.5
2018-Jun-12 15:30N 49°29' E 000°03'1 1.4
2018-Jun-12 15:00N 49°30' E 000°02'3 5.9
2018-Jun-12 14:30N 49°29' E 000°07'0 0.1
2018-Jun-12 14:00N 49°29' E 000°07'0 0.1
2018-Jun-12 13:30N 49°29' E 000°07'0 0.0
2018-Jun-12 13:00N 49°29' E 000°07'0 0.2
2018-Jun-12 12:30N 49°29' E 000°07'815.3
2018-Jun-12 12:00N 49°31' W 000°05'713.2
2018-Jun-12 11:30N 49°29' E 000°05'1 1.9
2018-Jun-12 11:00N 49°29' E 000°07'0 0.0
2018-Jun-12 10:30N 49°29' E 000°07'510.2
2018-Jun-12 10:00N 49°30' W 000°01'4 8.1
2018-Jun-12 09:30N 49°32' W 000°07'918.1
2018-Jun-12 09:00N 49°29' E 000°07'0 0.0
2018-Jun-12 08:31N 49°29' E 000°07'0 0.0
2018-Jun-12 08:00N 49°29' E 000°07'0 0.0
2018-Jun-12 07:30N 49°29' E 000°07'0 0.0
2018-Jun-12 07:00N 49°29' E 000°07'0 0.0
2018-Jun-12 06:30N 49°29' E 000°07'0 0.0
2018-Jun-12 06:00N 49°29' E 000°07'0 0.0
2018-Jun-12 05:30N 49°29' E 000°07'0 0.0
2018-Jun-12 05:00N 49°29' E 000°07'0 0.0
2018-Jun-12 04:30N 49°29' E 000°07'917.6
2018-Jun-12 04:01N 49°31' W 000°06'917.3
2018-Jun-12 03:30N 49°29' E 000°07'0 0.3
2018-Jun-12 03:00N 49°29' E 000°07'0 0.0
2018-Jun-12 02:30N 49°29' E 000°07'713.2
2018-Jun-12 02:00N 49°30' W 000°03'612.4
2018-Jun-12 01:30N 49°29' E 000°06'0 0.7
2018-Jun-12 01:00N 49°29' E 000°07'0 0.0
2018-Jun-12 00:30N 49°29' E 000°07'714.8
2018-Jun-12 00:00N 49°31' W 000°04'2 4.1
2018-Jun-11 23:30N 49°30' W 000°01'510.6
2018-Jun-11 23:00N 49°29' E 000°07'0 0.0
2018-Jun-11 22:30N 49°29' E 000°07'0 0.0
2018-Jun-11 22:00N 49°29' E 000°07'0 0.0
2018-Jun-11 21:30N 49°29' E 000°07'917.4
2018-Jun-11 21:00N 49°31' W 000°06'815.7
2018-Jun-11 20:30N 49°29' E 000°06'1 1.7
2018-Jun-11 20:01N 49°29' E 000°07'0 0.0
2018-Jun-11 19:30N 49°29' E 000°07'0 0.0
2018-Jun-11 19:01N 49°29' E 000°07'714.6
2018-Jun-11 18:31N 49°31' W 000°04'5 9.9
2018-Jun-11 18:00N 49°30' E 000°03'2 4.7
2018-Jun-11 17:30N 49°29' E 000°07'0 0.0
2018-Jun-11 17:00N 49°29' E 000°07'0 0.0
2018-Jun-11 16:30N 49°29' E 000°07'0 0.0
2018-Jun-11 16:00N 49°29' E 000°07'0 0.0
2018-Jun-11 15:29N 49°29' E 000°07'0 0.0
2018-Jun-11 15:00N 49°29' E 000°07'0 0.0
2018-Jun-11 14:30N 49°29' E 000°07'0 0.0
2018-Jun-11 14:00N 49°29' E 000°07'714.5
2018-Jun-11 13:30N 49°31' W 000°04'714.5
2018-Jun-11 13:00N 49°29' E 000°07'0 0.0
2018-Jun-11 12:30N 49°29' E 000°07'0 0.0
2018-Jun-11 12:01N 49°29' E 000°07'0 0.0
2018-Jun-11 11:31N 49°29' E 000°07'0 0.0
2018-Jun-11 11:00N 49°29' E 000°07'4 7.3
2018-Jun-11 10:30N 49°31' E 000°02'4 7.3
2018-Jun-11 10:00N 49°29' E 000°07'0 0.0
2018-Jun-11 09:30N 49°29' E 000°07'0 0.0
2018-Jun-11 09:00N 49°29' E 000°07'0 0.0
2018-Jun-11 08:30N 49°29' E 000°07'0 0.0
2018-Jun-11 08:00N 49°29' E 000°07'0 0.0
2018-Jun-11 07:30N 49°29' E 000°07'0 0.0
2018-Jun-11 07:00N 49°29' E 000°07'0 0.0
2018-Jun-11 06:30N 49°29' E 000°07'0 0.3
2018-Jun-11 06:00N 49°29' E 000°07'0 0.1
2018-Jun-11 05:30N 49°29' E 000°07'917.5
2018-Jun-11 05:01N 49°31' W 000°06'917.4
2018-Jun-11 04:30N 49°29' E 000°07'0 0.1
2018-Jun-11 04:00N 49°29' E 000°07'0 0.0
2018-Jun-11 03:30N 49°29' E 000°07'0 0.0
2018-Jun-11 03:00N 49°29' E 000°07'0 0.0
2018-Jun-11 02:30N 49°29' E 000°07'0 0.0
2018-Jun-11 02:00N 49°29' E 000°07'3 7.0
2018-Jun-11 01:30N 49°30' E 000°02'3 7.0
2018-Jun-11 01:01N 49°29' E 000°07'0 0.0
2018-Jun-11 00:30N 49°29' E 000°07'0 0.0
2018-Jun-11 00:01N 49°29' E 000°07'0 0.0
2018-Jun-10 23:30N 49°29' E 000°07'0 0.0
2018-Jun-10 23:00N 49°29' E 000°07'5 9.8
2018-Jun-10 22:31N 49°30' W 000°00'1 2.3
2018-Jun-10 22:01N 49°30' E 000°01'4 7.4
2018-Jun-10 21:30N 49°29' E 000°07'0 0.0
2018-Jun-10 21:00N 49°29' E 000°07'0 0.0
2018-Jun-10 20:30N 49°29' E 000°07'713.4
2018-Jun-10 20:00N 49°31' W 000°03'1 2.0
2018-Jun-10 19:30N 49°31' W 000°05'713.3
2018-Jun-10 19:00N 49°29' E 000°05'1 1.9
2018-Jun-10 18:30N 49°29' E 000°07'0 0.0
2018-Jun-10 18:00N 49°29' E 000°07'3 5.6
2018-Jun-10 17:31N 49°30' E 000°03'612.3
2018-Jun-10 17:00N 49°32' W 000°06'917.9
2018-Jun-10 16:30N 49°29' E 000°07'0 0.0
2018-Jun-10 16:00N 49°29' E 000°07'0 0.0
2018-Jun-10 15:30N 49°29' E 000°07'0 0.1
2018-Jun-10 15:00N 49°29' E 000°07'816.4
2018-Jun-10 14:30N 49°31' W 000°06'3 3.4
2018-Jun-10 13:31N 49°30' W 000°00'2 4.4
2018-Jun-10 13:01N 49°30' E 000°03'3 5.2
2018-Jun-10 12:30N 49°29' E 000°07'0 0.0
2018-Jun-10 12:00N 49°29' E 000°07'0 0.0
2018-Jun-10 11:30N 49°29' E 000°07'0 0.0
2018-Jun-10 11:00N 49°29' E 000°07'0 0.0
2018-Jun-10 10:30N 49°29' E 000°07'0 0.0
2018-Jun-10 10:00N 49°29' E 000°07'0 0.0
2018-Jun-10 09:30N 49°29' E 000°07'0 0.0
2018-Jun-10 09:00N 49°29' E 000°07'0 0.0
2018-Jun-10 08:30N 49°29' E 000°07'0 0.0
2018-Jun-10 08:00N 49°29' E 000°07'  
Track history (hours):
 
Tides and Currents Weather Stations Pressure Air Temp Water Temp Dewpoint Dewpoint Depression Visibility Wind Speed Wind Dir Waves Ship Positions

S C

Last reported at 2018-Jun-20 07:31 UTC. Time now 2018-Jun-20 07:48 UTC.
Position N 49°29' E 000°07'.

; draft 1 m.

Type: Pilot. MMSI: 227001820.

Date/timePositionNaut miles runAvg speedWind from/ knotsBaromVisibWave heightAir tempDewpointWater temp
2018-Jun-20 07:31N 49°29' E 000°07'0 0.0
2018-Jun-20 07:00N 49°29' E 000°07'0 0.0
2018-Jun-20 06:30N 49°29' E 000°07'1 2.8
2018-Jun-20 06:00N 49°29' E 000°05'4 7.1
2018-Jun-20 05:31N 49°31' E 000°00'5 9.7
2018-Jun-20 05:00N 49°29' E 000°07'3 6.5
2018-Jun-20 04:31N 49°30' E 000°02'0 0.6
2018-Jun-20 04:00N 49°30' E 000°01'4 7.1
2018-Jun-20 03:30N 49°29' E 000°07'0 0.0
2018-Jun-20 03:00N 49°29' E 000°07'0 0.0
2018-Jun-20 02:30N 49°29' E 000°07'0 0.0
2018-Jun-20 02:00N 49°29' E 000°07'0 0.0
2018-Jun-20 01:30N 49°29' E 000°07'0 0.0
2018-Jun-20 01:00N 49°29' E 000°07'0 0.0
2018-Jun-20 00:30N 49°29' E 000°07'0 0.0
2018-Jun-20 00:00N 49°29' E 000°07'4 8.7
2018-Jun-19 23:31N 49°30' E 000°00'4 7.8
2018-Jun-19 23:00N 49°29' E 000°06'0 0.9
2018-Jun-19 22:30N 49°29' E 000°07'0 0.0
2018-Jun-19 22:01N 49°29' E 000°07'0 0.0
2018-Jun-19 21:31N 49°29' E 000°07'0 0.0
2018-Jun-19 21:01N 49°29' E 000°07'0 0.0
2018-Jun-19 20:30N 49°29' E 000°07'0 0.0
2018-Jun-19 20:00N 49°29' E 000°07'0 0.0
2018-Jun-19 19:31N 49°29' E 000°07'3 5.2
2018-Jun-19 19:00N 49°30' E 000°03'0 0.3
2018-Jun-19 18:30N 49°30' E 000°03'3 5.4
2018-Jun-19 18:00N 49°29' E 000°07'0 0.0
2018-Jun-19 17:30N 49°29' E 000°07'0 0.0
2018-Jun-19 17:00N 49°29' E 000°07'0 0.0
2018-Jun-19 16:30N 49°29' E 000°07'0 0.0
2018-Jun-19 16:00N 49°29' E 000°07'816.8
2018-Jun-19 15:30N 49°31' W 000°06'816.4
2018-Jun-19 15:00N 49°29' E 000°06'0 0.3
2018-Jun-19 14:30N 49°29' E 000°06'918.4
2018-Jun-19 14:00N 49°32' W 000°07'1019.3
2018-Jun-19 13:30N 49°29' E 000°07'0 0.0
2018-Jun-19 13:00N 49°29' E 000°07'0 0.0
2018-Jun-19 12:30N 49°29' E 000°07'0 0.0
2018-Jun-19 12:00N 49°29' E 000°07'0 0.0
2018-Jun-19 11:30N 49°29' E 000°07'0 0.0
2018-Jun-19 11:00N 49°29' E 000°07'0 0.0
2018-Jun-19 10:30N 49°29' E 000°07'0 0.8
2018-Jun-19 10:00N 49°29' E 000°06'917.2
2018-Jun-19 09:30N 49°31' W 000°06'917.8
2018-Jun-19 09:00N 49°29' E 000°07'0 0.1
2018-Jun-19 08:30N 49°29' E 000°07'0 0.0
2018-Jun-19 08:00N 49°29' E 000°07'0 0.0
2018-Jun-19 07:30N 49°29' E 000°07'0 0.0
2018-Jun-19 07:00N 49°29' E 000°07'0 0.0
2018-Jun-19 06:30N 49°29' E 000°07'1 2.0
2018-Jun-19 06:00N 49°29' E 000°05'1 2.0
2018-Jun-19 05:30N 49°29' E 000°07'0 0.0
2018-Jun-19 05:00N 49°29' E 000°07'0 0.0
2018-Jun-19 04:31N 49°29' E 000°07'917.7
2018-Jun-19 04:01N 49°32' W 000°06'917.4
2018-Jun-19 03:31N 49°29' E 000°07'4 8.3
2018-Jun-19 03:00N 49°30' E 000°00'3 6.1
2018-Jun-19 02:30N 49°31' W 000°04'2 3.4
2018-Jun-19 02:01N 49°31' W 000°06'917.8
2018-Jun-19 01:30N 49°29' E 000°07'0 0.0
2018-Jun-19 01:00N 49°29' E 000°07'0 0.0
2018-Jun-19 00:30N 49°29' E 000°07'0 0.0
2018-Jun-19 00:00N 49°29' E 000°07'0 0.0
2018-Jun-18 23:30N 49°29' E 000°07'0 0.0
2018-Jun-18 23:00N 49°29' E 000°07'0 0.0
2018-Jun-18 22:30N 49°29' E 000°07'0 0.0
2018-Jun-18 22:00N 49°29' E 000°07'0 0.0
2018-Jun-18 21:30N 49°29' E 000°07'0 0.0
2018-Jun-18 21:00N 49°29' E 000°07'612.6
2018-Jun-18 20:30N 49°33' W 000°01'612.9
2018-Jun-18 20:00N 49°29' E 000°07'0 0.2
2018-Jun-18 19:30N 49°29' E 000°07'0 0.0
2018-Jun-18 19:00N 49°29' E 000°07'0 0.0
2018-Jun-18 18:30N 49°29' E 000°07'0 0.0
2018-Jun-18 18:00N 49°29' E 000°07'815.8
2018-Jun-18 17:31N 49°31' W 000°05'815.3
2018-Jun-18 17:00N 49°29' E 000°06'0 0.4
2018-Jun-18 16:30N 49°29' E 000°07'0 0.0
2018-Jun-18 16:00N 49°29' E 000°07'3 6.3
2018-Jun-18 15:31N 49°30' E 000°02'3 6.3
2018-Jun-18 15:01N 49°29' E 000°07'714.9
2018-Jun-18 14:30N 49°31' W 000°04'714.9
2018-Jun-18 14:00N 49°29' E 000°07'0 0.0
2018-Jun-18 13:30N 49°29' E 000°07'0 0.0
2018-Jun-18 13:00N 49°29' E 000°07'0 0.0
2018-Jun-18 12:30N 49°29' E 000°07'0 0.0
2018-Jun-18 12:00N 49°29' E 000°07'0 0.0
2018-Jun-18 11:30N 49°29' E 000°07'0 0.0
2018-Jun-18 11:00N 49°29' E 000°07'5 9.5
2018-Jun-18 10:30N 49°31' E 000°00'4 7.6
2018-Jun-18 10:01N 49°31' W 000°05'816.2
2018-Jun-18 09:30N 49°29' E 000°07'0 0.0
2018-Jun-18 09:01N 49°29' E 000°07'0 0.0
2018-Jun-18 08:30N 49°29' E 000°07'0 0.0
2018-Jun-18 08:00N 49°29' E 000°07'0 0.0
2018-Jun-18 07:30N 49°29' E 000°07'3 5.6
2018-Jun-18 07:01N 49°30' E 000°03'3 5.4
2018-Jun-18 06:30N 49°29' E 000°07'0 0.0
2018-Jun-18 06:00N 49°29' E 000°07'0 0.0
2018-Jun-18 05:30N 49°29' E 000°07'0 0.0
2018-Jun-18 05:00N 49°29' E 000°07'0 0.0
2018-Jun-18 04:30N 49°29' E 000°07'0 0.0
2018-Jun-18 04:00N 49°29' E 000°07'510.1
2018-Jun-18 03:31N 49°31' W 000°01'3 5.9
2018-Jun-18 03:01N 49°31' W 000°05'815.8
2018-Jun-18 02:30N 49°29' E 000°07'0 0.0
2018-Jun-18 02:00N 49°29' E 000°07'3 5.5
2018-Jun-18 01:31N 49°30' E 000°03'3 5.4
2018-Jun-18 01:00N 49°29' E 000°07'0 0.0
2018-Jun-18 00:30N 49°29' E 000°07'0 0.0
2018-Jun-18 00:00N 49°29' E 000°07'0 0.0
2018-Jun-17 23:30N 49°29' E 000°07'0 0.0
2018-Jun-17 23:00N 49°29' E 000°07'0 0.0
2018-Jun-17 22:30N 49°29' E 000°07'0 0.0
2018-Jun-17 22:00N 49°29' E 000°07'3 6.2
2018-Jun-17 21:31N 49°30' E 000°02'3 6.2
2018-Jun-17 21:01N 49°29' E 000°07'0 0.0
2018-Jun-17 20:31N 49°29' E 000°07'0 0.0
2018-Jun-17 20:01N 49°29' E 000°07'2 3.7
2018-Jun-17 19:30N 49°29' E 000°04'2 3.7
2018-Jun-17 19:00N 49°29' E 000°07'0 0.0
2018-Jun-17 18:30N 49°29' E 000°07'1 1.3
2018-Jun-17 18:01N 49°29' E 000°06'815.5
2018-Jun-17 17:31N 49°31' W 000°06'816.7
2018-Jun-17 17:00N 49°29' E 000°07'0 0.0
2018-Jun-17 16:31N 49°29' E 000°07'0 0.0
2018-Jun-17 16:01N 49°29' E 000°07'0 0.0
2018-Jun-17 15:30N 49°29' E 000°07'0 0.0
2018-Jun-17 15:00N 49°29' E 000°07'0 0.0
2018-Jun-17 14:30N 49°29' E 000°07'0 0.0
2018-Jun-17 14:01N 49°29' E 000°07'510.1
2018-Jun-17 13:30N 49°31' W 000°00'1 1.5
2018-Jun-17 13:01N 49°30' W 000°01'510.4
2018-Jun-17 12:30N 49°29' E 000°07'0 0.0
2018-Jun-17 12:00N 49°29' E 000°07'0 0.0
2018-Jun-17 11:30N 49°29' E 000°07'0 0.0
2018-Jun-17 11:00N 49°29' E 000°07'0 0.0
2018-Jun-17 10:31N 49°29' E 000°07'714.3
2018-Jun-17 10:01N 49°31' W 000°04'714.3
2018-Jun-17 09:30N 49°29' E 000°07'0 0.0
2018-Jun-17 09:00N 49°29' E 000°07'0 0.0
2018-Jun-17 08:30N 49°29' E 000°07'0 0.0
2018-Jun-17 08:00N 49°29' E 000°07'0 0.0
2018-Jun-17 07:30N 49°29' E 000°07'0 0.0
2018-Jun-17 07:01N 49°29' E 000°07'0 0.0
2018-Jun-17 06:31N 49°29' E 000°07'0 0.0
2018-Jun-17 06:01N 49°29' E 000°07'0 0.0
2018-Jun-17 05:30N 49°29' E 000°07'0 0.0
2018-Jun-17 05:00N 49°29' E 000°07'0 0.0
2018-Jun-17 04:30N 49°29' E 000°07'0 0.0
2018-Jun-17 04:01N 49°29' E 000°07'0 0.0
2018-Jun-17 03:30N 49°29' E 000°07'2 3.6
2018-Jun-17 03:00N 49°29' E 000°04'2 3.6
2018-Jun-17 02:31N 49°29' E 000°07'0 0.0
2018-Jun-17 02:01N 49°29' E 000°07'0 0.0
2018-Jun-17 01:30N 49°29' E 000°07'0 0.0
2018-Jun-17 01:00N 49°29' E 000°07'0 0.0
2018-Jun-17 00:31N 49°29' E 000°07'0 0.0
2018-Jun-17 00:00N 49°29' E 000°07'0 0.0
2018-Jun-16 23:31N 49°29' E 000°07'0 0.0
2018-Jun-16 23:00N 49°29' E 000°07'0 0.0
2018-Jun-16 22:30N 49°29' E 000°07'0 1.0
2018-Jun-16 22:00N 49°29' E 000°06'815.2
2018-Jun-16 21:30N 49°31' W 000°05'815.7
2018-Jun-16 21:00N 49°29' E 000°06'0 0.4
2018-Jun-16 20:30N 49°29' E 000°07'0 0.0
2018-Jun-16 20:00N 49°29' E 000°07'0 0.0
2018-Jun-16 19:30N 49°29' E 000°07'714.1
2018-Jun-16 19:00N 49°31' W 000°04'714.1
2018-Jun-16 18:30N 49°29' E 000°07'0 0.0
2018-Jun-16 18:00N 49°29' E 000°07'0 0.0
2018-Jun-16 17:30N 49°29' E 000°07'0 0.0
2018-Jun-16 17:00N 49°29' E 000°07'0 0.0
2018-Jun-16 16:30N 49°29' E 000°07'0 0.0
2018-Jun-16 16:00N 49°29' E 000°07'0 0.0
2018-Jun-16 15:30N 49°29' E 000°07'0 0.0
2018-Jun-16 15:00N 49°29' E 000°07'0 0.0
2018-Jun-16 14:30N 49°29' E 000°07'0 0.0
2018-Jun-16 14:00N 49°29' E 000°07'0 0.0
2018-Jun-16 13:30N 49°29' E 000°07'0 0.0
2018-Jun-16 13:00N 49°29' E 000°07'0 0.0
2018-Jun-16 12:30N 49°29' E 000°07'0 0.0
2018-Jun-16 12:00N 49°29' E 000°07'0 0.0
2018-Jun-16 11:30N 49°29' E 000°07'917.7
2018-Jun-16 11:00N 49°32' W 000°06'917.6
2018-Jun-16 10:30N 49°29' E 000°07'0 0.0
2018-Jun-16 10:00N 49°29' E 000°07'0 0.0
2018-Jun-16 09:30N 49°29' E 000°07'0 0.0
2018-Jun-16 09:00N 49°29' E 000°07'0 0.0
2018-Jun-16 08:30N 49°29' E 000°07'0 0.1
2018-Jun-16 08:00N 49°29' E 000°07'0 0.1
2018-Jun-16 07:30N 49°29' E 000°07'0 0.0
2018-Jun-16 07:00N 49°29' E 000°07'0 0.0
2018-Jun-16 06:29N 49°29' E 000°07'0 0.0
2018-Jun-16 06:00N 49°29' E 000°07'0 0.0
2018-Jun-16 05:30N 49°29' E 000°07'0 0.0
2018-Jun-16 05:00N 49°29' E 000°07'0 0.0
2018-Jun-16 04:30N 49°29' E 000°07'0 0.0
2018-Jun-16 04:00N 49°29' E 000°07'5 9.3
2018-Jun-16 03:30N 49°30' W 000°00'4 8.7
2018-Jun-16 03:00N 49°31' W 000°07'918.0
2018-Jun-16 02:30N 49°29' E 000°07'611.3
2018-Jun-16 02:00N 49°31' W 000°02'3 5.3
2018-Jun-16 01:30N 49°31' W 000°05'816.6
2018-Jun-16 01:00N 49°29' E 000°07'0 0.0
2018-Jun-16 00:30N 49°29' E 000°07'0 0.0
2018-Jun-16 00:00N 49°29' E 000°07'0 0.0
2018-Jun-15 23:30N 49°29' E 000°07'0 0.0
2018-Jun-15 23:00N 49°29' E 000°07'0 0.0
2018-Jun-15 22:30N 49°29' E 000°07'713.9
2018-Jun-15 22:00N 49°31' W 000°04'713.9
2018-Jun-15 21:30N 49°29' E 000°07'0 0.0
2018-Jun-15 21:00N 49°29' E 000°07'0 0.0
2018-Jun-15 20:30N 49°29' E 000°07'0 0.0
2018-Jun-15 20:00N 49°29' E 000°07'0 0.0
2018-Jun-15 19:30N 49°29' E 000°07'1 2.5
2018-Jun-15 19:00N 49°29' E 000°05'510.2
2018-Jun-15 18:30N 49°31' W 000°03'2 3.7
2018-Jun-15 18:00N 49°30' W 000°05'816.1
2018-Jun-15 17:30N 49°29' E 000°07'0 0.0
2018-Jun-15 17:00N 49°29' E 000°07'0 0.0
2018-Jun-15 16:30N 49°29' E 000°07'0 0.0
2018-Jun-15 16:00N 49°29' E 000°07'0 1.0
2018-Jun-15 15:30N 49°29' E 000°06'0 1.0
2018-Jun-15 15:00N 49°29' E 000°07'0 0.0
2018-Jun-15 14:31N 49°29' E 000°07'0 0.0
2018-Jun-15 14:00N 49°29' E 000°07'0 0.0
2018-Jun-15 13:31N 49°29' E 000°07'3 5.6
2018-Jun-15 13:01N 49°30' E 000°03'3 5.6
2018-Jun-15 12:30N 49°29' E 000°07'0 0.0
2018-Jun-15 12:00N 49°29' E 000°07'0 0.0
2018-Jun-15 11:30N 49°29' E 000°07'0 0.0
2018-Jun-15 11:00N 49°29' E 000°07'0 0.0
2018-Jun-15 10:30N 49°29' E 000°07'0 0.0
2018-Jun-15 10:00N 49°29' E 000°07'0 0.0
2018-Jun-15 09:30N 49°29' E 000°07'0 0.0
2018-Jun-15 09:00N 49°29' E 000°07'0 0.0
2018-Jun-15 08:30N 49°29' E 000°07'0 0.0
2018-Jun-15 08:00N 49°29' E 000°07'0 0.0
2018-Jun-15 07:30N 49°29' E 000°07'0 0.2
2018-Jun-15 07:00N 49°29' E 000°07'0 0.1
2018-Jun-15 06:30N 49°29' E 000°07'0 0.0
2018-Jun-15 06:00N 49°29' E 000°07'0 0.0
2018-Jun-15 05:30N 49°29' E 000°07'0 0.0
2018-Jun-15 05:00N 49°29' E 000°07'0 0.0
2018-Jun-15 04:30N 49°29' E 000°07'0 0.0
2018-Jun-15 04:00N 49°29' E 000°07'611.1
2018-Jun-15 03:30N 49°31' W 000°01'1 2.6
2018-Jun-15 03:00N 49°30' W 000°00'5 9.5
2018-Jun-15 02:31N 49°29' E 000°07'714.2
2018-Jun-15 02:01N 49°31' W 000°04'713.6
2018-Jun-15 01:30N 49°29' E 000°06'0 0.6
2018-Jun-15 01:00N 49°29' E 000°07'0 0.0
2018-Jun-15 00:30N 49°29' E 000°07'0 0.0
2018-Jun-15 00:00N 49°29' E 000°07'0 0.0
2018-Jun-14 23:30N 49°29' E 000°07'0 0.0
2018-Jun-14 23:00N 49°29' E 000°07'0 0.0
2018-Jun-14 22:30N 49°29' E 000°07'0 0.0
2018-Jun-14 22:00N 49°29' E 000°07'5 9.5
2018-Jun-14 21:31N 49°30' W 000°00'5 9.4
2018-Jun-14 21:00N 49°29' E 000°07'0 0.0
2018-Jun-14 20:30N 49°29' E 000°07'0 0.0
2018-Jun-14 20:00N 49°29' E 000°07'0 0.0
2018-Jun-14 19:30N 49°29' E 000°07'0 0.0
2018-Jun-14 19:00N 49°29' E 000°07'714.5
2018-Jun-14 18:30N 49°31' W 000°04'612.0
2018-Jun-14 18:00N 49°29' E 000°05'1 2.5
2018-Jun-14 17:30N 49°29' E 000°07'0 0.0
2018-Jun-14 17:00N 49°29' E 000°07'0 0.0
2018-Jun-14 16:30N 49°29' E 000°07'0 0.0
2018-Jun-14 16:00N 49°29' E 000°07'0 0.0
2018-Jun-14 15:30N 49°29' E 000°07'0 0.0
2018-Jun-14 15:00N 49°29' E 000°07'0 0.0
2018-Jun-14 14:30N 49°29' E 000°07'0 0.1
2018-Jun-14 14:00N 49°29' E 000°07'0 0.1
2018-Jun-14 13:30N 49°29' E 000°07'0 0.0
2018-Jun-14 13:00N 49°29' E 000°07'1 2.8
2018-Jun-14 12:30N 49°29' E 000°05'5 9.6
2018-Jun-14 12:00N 49°31' W 000°02'510.7
2018-Jun-14 11:31N 49°29' E 000°05'1 1.7
2018-Jun-14 11:00N 49°29' E 000°07'3 6.1
2018-Jun-14 10:30N 49°30' E 000°02'4 8.0
2018-Jun-14 10:01N 49°31' W 000°04'714.0
2018-Jun-14 09:31N 49°29' E 000°07'0 0.0
2018-Jun-14 09:00N 49°29' E 000°07'0 0.0
2018-Jun-14 08:31N 49°29' E 000°07'0 0.0
2018-Jun-14 08:01N 49°29' E 000°07'0 0.0
2018-Jun-14 07:30N 49°29' E 000°07'815.4
2018-Jun-14 07:00N 49°31' W 000°05'815.5
2018-Jun-14 06:30N 49°29' E 000°07'0 0.0
2018-Jun-14 06:00N 49°29' E 000°07'0 0.0
2018-Jun-14 05:30N 49°29' E 000°07'0 0.0
2018-Jun-14 05:00N 49°29' E 000°07'0 0.0
2018-Jun-14 04:30N 49°29' E 000°07'1 2.3
2018-Jun-14 04:01N 49°29' E 000°05'714.4
2018-Jun-14 03:31N 49°31' W 000°06'815.5
2018-Jun-14 03:00N 49°29' E 000°06'1 1.1
2018-Jun-14 02:30N 49°29' E 000°07'0 0.0
2018-Jun-14 02:00N 49°29' E 000°07'1 1.5
2018-Jun-14 01:30N 49°29' E 000°06'0 0.9
2018-Jun-14 01:00N 49°29' E 000°06'0 0.7
2018-Jun-14 00:30N 49°29' E 000°07'0 0.0
2018-Jun-14 00:00N 49°29' E 000°07'3 7.2
2018-Jun-13 23:31N 49°30' E 000°02'3 7.0
2018-Jun-13 23:01N 49°29' E 000°07'0 0.0
2018-Jun-13 22:30N 49°29' E 000°07'0 0.0
2018-Jun-13 22:00N 49°29' E 000°07'0 0.0
2018-Jun-13 21:30N 49°29' E 000°07'1 1.1
2018-Jun-13 21:01N 49°29' E 000°06'1 1.1
2018-Jun-13 20:31N 49°29' E 000°07'1 2.8
2018-Jun-13 20:00N 49°29' E 000°05'4 8.7
2018-Jun-13 19:30N 49°31' W 000°02'5 9.8
2018-Jun-13 19:00N 49°29' E 000°05'1 1.9
2018-Jun-13 18:30N 49°29' E 000°07'0 0.0
2018-Jun-13 18:00N 49°29' E 000°07'0 0.0
2018-Jun-13 17:31N 49°29' E 000°07'0 0.0
2018-Jun-13 17:01N 49°29' E 000°07'0 0.0
2018-Jun-13 16:30N 49°29' E 000°07'0 0.0
2018-Jun-13 16:01N 49°29' E 000°07'0 0.0
2018-Jun-13 15:30N 49°29' E 000°07'0 0.0
2018-Jun-13 15:00N 49°29' E 000°07'0 0.0
2018-Jun-13 14:30N 49°29' E 000°07'0 0.1
2018-Jun-13 14:01N 49°29' E 000°07'0 0.1
2018-Jun-13 13:30N 49°29' E 000°07'0 0.0
2018-Jun-13 13:00N 49°29' E 000°07'0 0.0
2018-Jun-13 12:31N 49°29' E 000°07'0 0.0
2018-Jun-13 12:00N 49°29' E 000°07'0 0.0
2018-Jun-13 11:31N 49°29' E 000°07'0 0.0
2018-Jun-13 11:00N 49°29' E 000°07'0 0.0
2018-Jun-13 10:30N 49°29' E 000°07'0 0.0
2018-Jun-13 10:00N 49°29' E 000°07'0 0.0
2018-Jun-13 09:30N 49°29' E 000°07'0 0.0
2018-Jun-13 09:00N 49°29' E 000°07'0 0.0
2018-Jun-13 08:30N 49°29' E 000°07'0 0.0
2018-Jun-13 08:00N 49°29' E 000°07'0 0.0
2018-Jun-13 07:30N 49°29' E 000°07'0 0.0
2018-Jun-13 07:00N 49°29' E 000°07'0 0.3
2018-Jun-13 06:30N 49°29' E 000°07'0 0.3
2018-Jun-13 06:00N 49°29' E 000°07'0 0.0
2018-Jun-13 05:30N 49°29' E 000°07'0 0.0
2018-Jun-13 05:00N 49°29' E 000°07'2 4.7
2018-Jun-13 04:31N 49°29' E 000°03'2 3.6
2018-Jun-13 04:00N 49°30' E 000°01'4 8.3
2018-Jun-13 03:30N 49°29' E 000°07'0 0.0
2018-Jun-13 03:00N 49°29' E 000°07'918.5
2018-Jun-13 02:31N 49°32' W 000°07'816.7
2018-Jun-13 02:01N 49°29' E 000°05'1 1.8
2018-Jun-13 01:30N 49°29' E 000°07'0 0.0
2018-Jun-13 01:00N 49°29' E 000°07'0 0.0
2018-Jun-13 00:30N 49°29' E 000°07'1 1.4
2018-Jun-13 00:00N 49°29' E 000°06'1 2.6
2018-Jun-12 23:30N 49°29' E 000°04'2 3.9
2018-Jun-12 23:00N 49°29' E 000°07'0 0.0
2018-Jun-12 22:30N 49°29' E 000°07'0 0.0
2018-Jun-12 22:00N 49°29' E 000°07'0 0.0
2018-Jun-12 21:30N 49°29' E 000°07'0 0.0
2018-Jun-12 21:00N 49°29' E 000°07'3 5.1
2018-Jun-12 20:31N 49°30' E 000°03'1 2.4
2018-Jun-12 20:01N 49°28' E 000°02'1 1.6
2018-Jun-12 19:31N 49°28' E 000°02'2 4.3
2018-Jun-12 19:00N 49°30' E 000°03'3 6.0
2018-Jun-12 18:30N 49°30' W 000°01'511.1
2018-Jun-12 18:00N 49°29' E 000°07'0 0.0
2018-Jun-12 17:30N 49°29' E 000°07'816.1
2018-Jun-12 17:01N 49°31' W 000°05'815.8
2018-Jun-12 16:30N 49°29' E 000°07'714.2
2018-Jun-12 16:00N 49°31' W 000°04'5 9.5
2018-Jun-12 15:30N 49°29' E 000°03'1 1.4
2018-Jun-12 15:00N 49°30' E 000°02'3 5.9
2018-Jun-12 14:30N 49°29' E 000°07'0 0.1
2018-Jun-12 14:00N 49°29' E 000°07'0 0.1
2018-Jun-12 13:30N 49°29' E 000°07'0 0.0
2018-Jun-12 13:00N 49°29' E 000°07'0 0.2
2018-Jun-12 12:30N 49°29' E 000°07'815.3
2018-Jun-12 12:00N 49°31' W 000°05'713.2
2018-Jun-12 11:30N 49°29' E 000°05'1 1.9
2018-Jun-12 11:00N 49°29' E 000°07'0 0.0
2018-Jun-12 10:30N 49°29' E 000°07'510.2
2018-Jun-12 10:00N 49°30' W 000°01'4 8.1
2018-Jun-12 09:30N 49°32' W 000°07'918.1
2018-Jun-12 09:00N 49°29' E 000°07'0 0.0
2018-Jun-12 08:31N 49°29' E 000°07'0 0.0
2018-Jun-12 08:00N 49°29' E 000°07'0 0.0
2018-Jun-12 07:30N 49°29' E 000°07'0 0.0
2018-Jun-12 07:00N 49°29' E 000°07'0 0.0
2018-Jun-12 06:30N 49°29' E 000°07'0 0.0
2018-Jun-12 06:00N 49°29' E 000°07'0 0.0
2018-Jun-12 05:30N 49°29' E 000°07'0 0.0
2018-Jun-12 05:00N 49°29' E 000°07'0 0.0
2018-Jun-12 04:30N 49°29' E 000°07'917.6
2018-Jun-12 04:01N 49°31' W 000°06'917.3
2018-Jun-12 03:30N 49°29' E 000°07'0 0.3
2018-Jun-12 03:00N 49°29' E 000°07'0 0.0
2018-Jun-12 02:30N 49°29' E 000°07'713.2
2018-Jun-12 02:00N 49°30' W 000°03'612.4
2018-Jun-12 01:30N 49°29' E 000°06'0 0.7
2018-Jun-12 01:00N 49°29' E 000°07'0 0.0
2018-Jun-12 00:30N 49°29' E 000°07'714.8
2018-Jun-12 00:00N 49°31' W 000°04'2 4.1
2018-Jun-11 23:30N 49°30' W 000°01'510.6
2018-Jun-11 23:00N 49°29' E 000°07'0 0.0
2018-Jun-11 22:30N 49°29' E 000°07'0 0.0
2018-Jun-11 22:00N 49°29' E 000°07'0 0.0
2018-Jun-11 21:30N 49°29' E 000°07'917.4
2018-Jun-11 21:00N 49°31' W 000°06'815.7
2018-Jun-11 20:30N 49°29' E 000°06'1 1.7
2018-Jun-11 20:01N 49°29' E 000°07'0 0.0
2018-Jun-11 19:30N 49°29' E 000°07'0 0.0
2018-Jun-11 19:01N 49°29' E 000°07'714.6
2018-Jun-11 18:31N 49°31' W 000°04'5 9.9
2018-Jun-11 18:00N 49°30' E 000°03'2 4.7
2018-Jun-11 17:30N 49°29' E 000°07'0 0.0
2018-Jun-11 17:00N 49°29' E 000°07'0 0.0
2018-Jun-11 16:30N 49°29' E 000°07'0 0.0
2018-Jun-11 16:00N 49°29' E 000°07'0 0.0
2018-Jun-11 15:29N 49°29' E 000°07'0 0.0
2018-Jun-11 15:00N 49°29' E 000°07'0 0.0
2018-Jun-11 14:30N 49°29' E 000°07'0 0.0
2018-Jun-11 14:00N 49°29' E 000°07'714.5
2018-Jun-11 13:30N 49°31' W 000°04'714.5
2018-Jun-11 13:00N 49°29' E 000°07'0 0.0
2018-Jun-11 12:30N 49°29' E 000°07'0 0.0
2018-Jun-11 12:01N 49°29' E 000°07'0 0.0
2018-Jun-11 11:31N 49°29' E 000°07'0 0.0
2018-Jun-11 11:00N 49°29' E 000°07'4 7.3
2018-Jun-11 10:30N 49°31' E 000°02'4 7.3
2018-Jun-11 10:00N 49°29' E 000°07'0 0.0
2018-Jun-11 09:30N 49°29' E 000°07'0 0.0
2018-Jun-11 09:00N 49°29' E 000°07'0 0.0
2018-Jun-11 08:30N 49°29' E 000°07'0 0.0
2018-Jun-11 08:00N 49°29' E 000°07'0 0.0
2018-Jun-11 07:30N 49°29' E 000°07'0 0.0
2018-Jun-11 07:00N 49°29' E 000°07'0 0.0
2018-Jun-11 06:30N 49°29' E 000°07'0 0.3
2018-Jun-11 06:00N 49°29' E 000°07'0 0.1
2018-Jun-11 05:30N 49°29' E 000°07'917.5
2018-Jun-11 05:01N 49°31' W 000°06'917.4
2018-Jun-11 04:30N 49°29' E 000°07'0 0.1
2018-Jun-11 04:00N 49°29' E 000°07'0 0.0
2018-Jun-11 03:30N 49°29' E 000°07'0 0.0
2018-Jun-11 03:00N 49°29' E 000°07'0 0.0
2018-Jun-11 02:30N 49°29' E 000°07'0 0.0
2018-Jun-11 02:00N 49°29' E 000°07'3 7.0
2018-Jun-11 01:30N 49°30' E 000°02'3 7.0
2018-Jun-11 01:01N 49°29' E 000°07'0 0.0
2018-Jun-11 00:30N 49°29' E 000°07'0 0.0
2018-Jun-11 00:01N 49°29' E 000°07'0 0.0
2018-Jun-10 23:30N 49°29' E 000°07'0 0.0
2018-Jun-10 23:00N 49°29' E 000°07'5 9.8
2018-Jun-10 22:31N 49°30' W 000°00'1 2.3
2018-Jun-10 22:01N 49°30' E 000°01'4 7.4
2018-Jun-10 21:30N 49°29' E 000°07'0 0.0
2018-Jun-10 21:00N 49°29' E 000°07'0 0.0
2018-Jun-10 20:30N 49°29' E 000°07'713.4
2018-Jun-10 20:00N 49°31' W 000°03'1 2.0
2018-Jun-10 19:30N 49°31' W 000°05'713.3
2018-Jun-10 19:00N 49°29' E 000°05'1 1.9
2018-Jun-10 18:30N 49°29' E 000°07'0 0.0
2018-Jun-10 18:00N 49°29' E 000°07'3 5.6
2018-Jun-10 17:31N 49°30' E 000°03'612.3
2018-Jun-10 17:00N 49°32' W 000°06'917.9
2018-Jun-10 16:30N 49°29' E 000°07'0 0.0
2018-Jun-10 16:00N 49°29' E 000°07'0 0.0
2018-Jun-10 15:30N 49°29' E 000°07'0 0.1
2018-Jun-10 15:00N 49°29' E 000°07'816.4
2018-Jun-10 14:30N 49°31' W 000°06'3 3.4
2018-Jun-10 13:31N 49°30' W 000°00'2 4.4
2018-Jun-10 13:01N 49°30' E 000°03'3 5.2
2018-Jun-10 12:30N 49°29' E 000°07'0 0.0
2018-Jun-10 12:00N 49°29' E 000°07'0 0.0
2018-Jun-10 11:30N 49°29' E 000°07'0 0.0
2018-Jun-10 11:00N 49°29' E 000°07'0 0.0
2018-Jun-10 10:30N 49°29' E 000°07'0 0.0
2018-Jun-10 10:00N 49°29' E 000°07'0 0.0
2018-Jun-10 09:30N 49°29' E 000°07'0 0.0
2018-Jun-10 09:00N 49°29' E 000°07'0 0.0
2018-Jun-10 08:30N 49°29' E 000°07'0 0.0
2018-Jun-10 08:00N 49°29' E 000°07'  

Dump ship's entire track history